createdAt,value
2022-12-24T11:29:07.239Z,1.00
2022-12-24T11:31:37.298Z,0.80
2022-12-24T11:34:24.121Z,0.60
2022-12-24T11:36:53.038Z,0.63
2022-12-24T11:39:23.004Z,0.80
2022-12-24T11:41:52.262Z,0.80
2022-12-24T11:44:27.033Z,0.80
2022-12-24T11:46:57.687Z,1.30
2022-12-24T11:49:28.222Z,1.10
2022-12-24T11:52:14.945Z,1.10
2022-12-24T11:54:52.991Z,0.63
2022-12-24T11:57:25.285Z,1.30
2022-12-24T11:59:54.648Z,1.10
2022-12-24T12:02:28.031Z,0.90
2022-12-24T12:05:00.939Z,0.90
2022-12-24T12:07:31.685Z,0.87
2022-12-24T12:10:05.483Z,0.93
2022-12-24T12:12:37.196Z,1.60
2022-12-24T12:15:14.268Z,0.83
2022-12-24T12:17:50.209Z,1.30
2022-12-24T12:20:23.443Z,0.77
2022-12-24T12:22:58.741Z,2.23
2022-12-24T12:25:33.316Z,0.63
2022-12-24T12:28:04.191Z,1.20
2022-12-24T12:30:35.270Z,1.20
2022-12-24T12:33:15.155Z,1.10
2022-12-24T12:35:45.776Z,0.70
2022-12-24T12:38:20.551Z,1.30
2022-12-24T12:41:03.293Z,1.30
2022-12-24T12:43:42.415Z,0.90
2022-12-24T12:46:21.937Z,0.83
2022-12-24T12:49:09.041Z,1.20
2022-12-24T12:51:44.010Z,0.87
2022-12-24T12:54:29.990Z,0.80
2022-12-24T12:57:02.740Z,1.00
2022-12-24T12:59:36.861Z,1.10
2022-12-24T13:02:20.092Z,0.70
2022-12-24T13:05:21.330Z,0.90
2022-12-24T13:08:09.325Z,0.80
2022-12-24T13:10:53.054Z,1.10
2022-12-24T13:13:47.672Z,1.20
2022-12-24T13:16:36.772Z,0.80
2022-12-24T13:19:18.972Z,1.13
2022-12-24T13:21:48.997Z,0.80
2022-12-24T13:24:19.876Z,1.10
2022-12-24T13:27:02.725Z,1.53
2022-12-24T13:29:32.849Z,0.87
2022-12-24T13:32:41.188Z,0.87
2022-12-24T13:35:38.870Z,1.00
2022-12-24T13:38:43.795Z,0.80
2022-12-24T13:41:50.054Z,1.13
2022-12-24T13:44:34.670Z,1.07
2022-12-24T13:47:25.295Z,1.20
2022-12-24T13:49:57.757Z,0.90
2022-12-24T13:52:31.493Z,0.70
2022-12-24T13:55:15.481Z,0.77
2022-12-24T13:57:48.759Z,1.00
2022-12-24T14:00:35.046Z,1.20
2022-12-24T14:03:08.469Z,0.70
2022-12-24T14:05:40.158Z,0.90
2022-12-24T14:08:13.777Z,1.30
2022-12-24T14:10:45.502Z,0.70
2022-12-24T14:13:47.100Z,1.03
2022-12-24T14:16:17.698Z,0.80
2022-12-24T14:18:49.352Z,1.50
2022-12-24T14:21:22.025Z,1.70
2022-12-24T14:23:57.451Z,1.20
2022-12-24T14:26:30.196Z,0.93
2022-12-24T14:29:01.950Z,1.33
2022-12-24T14:31:30.095Z,1.03
2022-12-24T14:34:08.101Z,1.30
2022-12-24T14:36:37.742Z,0.60
2022-12-24T14:39:11.251Z,1.20
2022-12-24T14:41:47.832Z,0.90
2022-12-24T14:44:28.461Z,1.00
2022-12-24T14:47:02.569Z,0.93
2022-12-24T14:49:44.653Z,1.03
2022-12-24T14:52:54.697Z,0.80
2022-12-24T14:55:32.128Z,1.00
2022-12-24T14:58:22.032Z,1.40
2022-12-24T15:00:50.603Z,1.00
2022-12-24T15:03:20.091Z,1.03
2022-12-24T15:05:53.569Z,1.10
2022-12-24T15:08:28.820Z,1.20
2022-12-24T15:11:01.588Z,1.00
2022-12-24T15:13:36.666Z,1.10
2022-12-24T15:16:06.831Z,1.30
2022-12-24T15:18:37.793Z,1.03
2022-12-24T15:21:09.081Z,1.50
2022-12-24T15:23:38.710Z,1.10
2022-12-24T15:26:25.004Z,1.30
2022-12-24T15:28:59.982Z,1.37
2022-12-24T15:31:32.347Z,1.47
2022-12-24T15:34:01.307Z,0.97
2022-12-24T15:36:32.671Z,1.05
2022-12-24T15:39:03.946Z,1.50
2022-12-24T15:41:59.374Z,2.67
2022-12-24T15:44:28.189Z,1.80
2022-12-24T15:47:00.397Z,1.60
2022-12-24T15:49:29.185Z,1.10
2022-12-24T15:52:05.628Z,1.33
2022-12-24T15:54:33.788Z,1.30
2022-12-24T15:57:14.167Z,1.30
2022-12-24T15:59:42.314Z,1.33
2022-12-24T16:02:40.417Z,3.27
2022-12-24T16:05:36.900Z,1.10
2022-12-24T16:08:25.770Z,1.63
2022-12-24T16:11:08.652Z,1.30
2022-12-24T16:13:40.180Z,1.70
2022-12-24T16:16:11.135Z,2.17
2022-12-24T16:18:41.760Z,1.70
2022-12-24T16:21:10.108Z,1.83
2022-12-24T16:23:40.961Z,1.73
2022-12-24T16:26:09.017Z,1.30
2022-12-24T16:28:38.633Z,1.40
2022-12-24T16:31:07.017Z,1.30
2022-12-24T16:33:34.985Z,1.60
2022-12-24T16:36:03.069Z,1.50
2022-12-24T16:38:51.555Z,1.67
2022-12-24T16:41:19.608Z,1.60
2022-12-24T16:43:50.709Z,1.70
2022-12-24T16:46:19.308Z,1.57
2022-12-24T16:48:50.043Z,1.80
2022-12-24T16:51:17.978Z,1.33
2022-12-24T16:53:46.037Z,1.17
2022-12-24T16:56:13.989Z,1.30
2022-12-24T16:58:41.897Z,1.10
2022-12-24T17:01:11.514Z,1.47
2022-12-24T17:03:39.588Z,1.23
2022-12-24T17:06:09.530Z,1.47
2022-12-24T17:08:37.720Z,1.30
2022-12-24T17:11:05.934Z,1.47
2022-12-24T17:13:34.043Z,1.03
2022-12-24T17:16:02.290Z,1.40
2022-12-24T17:18:31.955Z,0.93
2022-12-24T17:21:01.279Z,1.80
2022-12-24T17:23:29.388Z,1.27
2022-12-24T17:25:58.187Z,1.30
2022-12-24T17:28:26.303Z,1.03
2022-12-24T17:30:54.620Z,1.20
2022-12-24T17:33:22.599Z,1.43
2022-12-24T17:35:52.418Z,1.47
2022-12-24T17:38:20.453Z,1.37
2022-12-24T17:40:48.548Z,1.70
2022-12-24T17:43:16.473Z,2.17
2022-12-24T17:45:44.607Z,1.53
2022-12-24T17:48:13.009Z,1.70
2022-12-24T17:50:41.258Z,1.80
2022-12-24T17:53:10.613Z,1.33
2022-12-24T17:55:41.878Z,1.40
2022-12-24T17:58:10.104Z,1.50
2022-12-24T18:00:38.186Z,2.07
2022-12-24T18:03:06.342Z,1.40
2022-12-24T18:05:36.174Z,1.60
2022-12-24T18:08:04.570Z,1.53
2022-12-24T18:10:33.851Z,1.70
2022-12-24T18:13:01.887Z,1.83
2022-12-24T18:15:29.954Z,1.20
2022-12-24T18:17:59.275Z,1.53
2022-12-24T18:20:27.679Z,1.50
2022-12-24T18:22:55.840Z,1.87
2022-12-24T18:25:23.950Z,2.27
2022-12-24T18:27:53.351Z,1.93
2022-12-24T18:30:27.358Z,2.27
2022-12-24T18:32:55.938Z,2.67
2022-12-24T18:35:24.868Z,2.27
2022-12-24T18:37:53.294Z,1.90
2022-12-24T18:40:21.587Z,2.23
2022-12-24T18:42:49.561Z,1.93
2022-12-24T18:45:19.049Z,2.10
2022-12-24T18:47:46.953Z,1.87
2022-12-24T18:50:14.995Z,2.07
2022-12-24T18:52:42.946Z,2.23
2022-12-24T18:55:11.668Z,2.80
2022-12-24T18:57:39.736Z,2.20
2022-12-24T19:00:10.567Z,2.53
2022-12-24T19:02:40.070Z,1.93
2022-12-24T19:05:09.379Z,2.40
2022-12-24T19:07:37.636Z,2.20
2022-12-24T19:10:06.958Z,1.97
2022-12-24T19:12:34.921Z,2.40
2022-12-24T19:15:02.859Z,2.30
2022-12-24T19:17:31.049Z,2.40
2022-12-24T19:20:00.353Z,2.50
2022-12-24T19:22:28.473Z,2.50
2022-12-24T19:24:56.548Z,2.10
2022-12-24T19:27:24.652Z,2.50
2022-12-24T19:29:52.724Z,2.07
2022-12-24T19:32:20.692Z,2.50
2022-12-24T19:34:48.880Z,2.80
2022-12-24T19:37:18.188Z,2.97
2022-12-24T19:39:46.099Z,3.50
2022-12-24T19:42:14.324Z,2.33
2022-12-24T19:44:42.812Z,2.97
2022-12-24T19:47:10.999Z,2.60
2022-12-24T19:49:39.056Z,2.67
2022-12-24T19:52:06.977Z,3.23
2022-12-24T19:54:36.575Z,3.23
2022-12-24T19:57:04.620Z,3.07
2022-12-24T19:59:32.636Z,2.60
2022-12-24T20:02:00.898Z,1.70
2022-12-24T20:04:28.927Z,2.20
2022-12-24T20:07:00.385Z,2.93
2022-12-24T20:09:31.574Z,2.37
2022-12-24T20:12:00.979Z,2.77
2022-12-24T20:14:29.666Z,2.80
2022-12-24T20:16:57.765Z,2.90
2022-12-24T20:19:25.863Z,2.70
2022-12-24T20:21:53.957Z,2.20
2022-12-24T20:24:21.862Z,2.00
2022-12-24T20:26:49.801Z,2.30
2022-12-24T20:29:19.216Z,3.20
2022-12-24T20:31:47.279Z,2.50
2022-12-24T20:34:15.373Z,2.50
2022-12-24T20:36:43.806Z,2.70
2022-12-24T20:39:13.353Z,3.07
2022-12-24T20:41:41.266Z,2.60
2022-12-24T20:44:09.342Z,2.50
2022-12-24T20:46:39.878Z,2.10
2022-12-24T20:49:07.792Z,2.50
2022-12-24T20:51:36.247Z,2.20
2022-12-24T20:54:04.301Z,2.80
2022-12-24T20:56:32.498Z,2.57
2022-12-24T20:59:01.965Z,2.40
2022-12-24T21:01:30.740Z,2.30
2022-12-24T21:04:04.866Z,2.67
2022-12-24T21:06:33.625Z,2.73
2022-12-24T21:09:02.800Z,2.40
2022-12-24T21:11:48.552Z,2.50
2022-12-24T21:14:18.797Z,2.50
2022-12-24T21:16:47.135Z,2.60
2022-12-24T21:19:19.243Z,3.00
2022-12-24T21:21:47.880Z,2.70
2022-12-24T21:24:16.520Z,1.80
2022-12-24T21:26:44.529Z,2.47
2022-12-24T21:29:13.422Z,2.07
2022-12-24T21:31:41.355Z,2.40
2022-12-24T21:34:09.270Z,2.17
2022-12-24T21:36:38.744Z,2.43
2022-12-24T21:39:06.684Z,2.27
2022-12-24T21:41:34.854Z,2.20
2022-12-24T21:44:03.108Z,2.40
2022-12-24T21:46:31.082Z,1.83
2022-12-24T21:49:16.652Z,2.17
2022-12-24T21:51:49.018Z,2.20
2022-12-24T21:54:27.391Z,3.20
2022-12-24T21:57:14.886Z,2.60
2022-12-24T21:59:42.996Z,2.50
2022-12-24T22:02:12.941Z,2.60
2022-12-24T22:04:41.618Z,2.03
2022-12-24T22:07:37.668Z,2.90
2022-12-24T22:10:25.185Z,2.43
2022-12-24T22:12:53.672Z,2.53
2022-12-24T22:15:21.847Z,2.50
2022-12-24T22:17:49.897Z,6.40
2022-12-24T22:20:17.994Z,5.10
2022-12-24T22:22:48.758Z,3.67
2022-12-24T22:25:17.355Z,3.30
2022-12-24T22:27:45.484Z,3.20
2022-12-24T22:30:14.280Z,2.93
2022-12-24T22:32:42.398Z,3.10
2022-12-24T22:35:11.168Z,2.50
2022-12-24T22:37:39.159Z,3.03
2022-12-24T22:40:10.089Z,2.60
2022-12-24T22:42:38.513Z,2.57
2022-12-24T22:45:07.905Z,2.13
2022-12-24T22:47:35.989Z,2.83
2022-12-24T22:50:04.075Z,2.40
2022-12-24T22:52:33.653Z,2.93
2022-12-24T22:55:01.636Z,3.30
2022-12-24T22:57:30.877Z,2.70
2022-12-24T22:59:58.945Z,2.80
2022-12-24T23:02:28.619Z,3.97
2022-12-24T23:04:57.868Z,3.63
2022-12-24T23:07:25.792Z,3.40
2022-12-24T23:09:53.743Z,3.23
2022-12-24T23:12:42.148Z,3.27
2022-12-24T23:15:11.729Z,2.73
2022-12-24T23:17:39.682Z,2.93
2022-12-24T23:20:09.064Z,3.10
2022-12-24T23:22:36.989Z,2.10
2022-12-24T23:25:05.617Z,3.23
2022-12-24T23:27:33.625Z,3.03
2022-12-24T23:30:01.698Z,2.50
2022-12-24T23:32:30.954Z,2.30
2022-12-24T23:34:59.013Z,2.90
2022-12-24T23:37:32.979Z,2.13
2022-12-24T23:40:02.703Z,2.10
2022-12-24T23:42:31.035Z,2.50
2022-12-24T23:44:58.958Z,2.37
2022-12-24T23:47:28.196Z,2.73
2022-12-24T23:49:57.564Z,2.17
2022-12-24T23:52:25.636Z,2.30
2022-12-24T23:54:53.566Z,2.83
2022-12-24T23:57:21.580Z,3.20
2022-12-24T23:59:49.897Z,3.03
